Latest Weather Observations for Essendon Airport

IDV60801

Issued at 6:02 am EDT Monday 9 December 2019 (issued every 10 minutes, with the page automatically refreshed every 10 minutes)

About weather observations | Map of weather stations | Latest weather observations for VIC | Other Formats
Station Details ID: 086038 Name: ESSENDON AIRPORT Lat: -37.73 Lon: 144.91 Height: 78.4 m
Data from the previous 72 hours. | See also: Recent months at Essendon Airport
Date/Time
EDT
Temp
°C
App
Temp
°C
Dew
Point
°C
Rel
Hum
%
Delta-T
°C
Wind Press
QNH
hPa
Press
MSL
hPa
Rain since
9am
mm
Dir  Spd
km/h
Gust
km/h
Spd
kts
Gust
kts
09/06:00am 17.0 15.7 9.9 63 3.8 NNE 7 9 4 5 1012.9 1012.8 -
09/05:30am 15.9 15.5 11.1 73 2.6 NE 4 6 2 3 1012.8 1012.7 0.0
09/05:00am 14.4 13.5 11.2 81 1.7 NE 7 9 4 5 1012.9 1012.8 0.0
09/04:30am 14.5 12.5 11.5 82 1.6 NE 13 13 7 7 1013.1 1013.0 0.0
09/04:00am 14.7 13.5 11.7 82 1.6 NNE 9 11 5 6 1013.7 1013.6 0.0
09/03:30am 14.8 13.3 11.9 83 1.6 NNE 11 11 6 6 1014.1 1014.0 0.0
09/03:00am 15.0 14.3 12.1 83 1.6 NE 7 9 4 5 1014.6 1014.5 0.0
09/02:30am 14.9 14.2 12.0 83 1.6 NE 7 9 4 5 1014.7 1014.6 0.0
09/02:00am 15.4 14.4 12.3 82 1.7 NE 9 11 5 6 1014.7 1014.6 0.0
09/01:30am 16.2 15.3 12.7 80 1.9 NW 9 9 5 5 1015.2 1015.0 0.0
09/01:00am 16.5 16.0 12.7 78 2.1 NW 7 11 4 6 1015.9 1015.7 0.0
09/12:30am 16.2 16.9 12.2 77 2.2 CALM 0 0 0 0 1016.2 1016.0 0.0
09/12:00am 17.3 16.7 12.2 72 2.8 NW 7 9 4 5 1016.4 1016.2 0.0
 
Date/Time
EDT
Temp
°C
App
Temp
°C
Dew
Point
°C
Rel
Hum
%
Delta-T
°C
Wind Press
QNH
hPa
Press
MSL
hPa
Rain since
9am
mm
Dir  Spd
km/h
Gust
km/h
Spd
kts
Gust
kts
08/11:30pm 18.5 17.6 12.7 69 3.3 NW 9 15 5 8 1016.4 1016.2 0.0
08/11:00pm 19.1 18.2 13.7 71 3.1 WNW 11 13 6 7 1016.7 1016.5 0.0
08/10:30pm 18.6 17.8 13.9 74 2.7 WNW 11 13 6 7 1016.9 1016.7 0.0
08/10:00pm 18.7 17.9 14.0 74 2.7 W 11 13 6 7 1017.0 1016.8 0.0
08/09:30pm 19.2 18.3 13.8 71 3.1 SW 11 13 6 7 1016.9 1016.7 0.0
08/09:00pm 20.1 18.8 13.8 67 3.6 SW 13 17 7 9 1016.9 1016.7 0.0
08/08:30pm 20.7 18.9 13.4 63 4.2 SW 15 17 8 9 1016.6 1016.4 0.0
08/08:00pm 21.6 20.5 13.0 58 4.9 SSW 11 13 6 7 1016.4 1016.2 0.0
08/07:30pm 22.2 20.3 13.0 56 5.3 SSW 15 17 8 9 1016.2 1016.0 0.0
08/07:00pm 22.6 20.6 12.8 54 5.6 S 15 19 8 10 1016.0 1015.8 0.0
08/06:30pm 22.9 19.7 11.9 50 6.2 S 20 26 11 14 1015.8 1015.6 0.0
08/06:00pm 23.6 19.9 11.6 47 6.8 S 22 28 12 15 1015.9 1015.7 0.0
08/05:30pm 24.5 22.1 12.5 47 6.9 S 17 24 9 13 1016.0 1015.8 0.0
08/05:00pm 24.6 21.6 11.9 45 7.2 SSE 19 24 10 13 1016.3 1016.1 0.0
08/04:30pm 24.2 21.0 11.2 44 7.3 S 19 24 10 13 1016.4 1016.2 0.0
08/04:00pm 24.9 21.7 11.1 42 7.8 S 19 26 10 14 1016.6 1016.4 0.0
08/03:30pm 24.2 21.5 10.5 42 7.6 S 15 22 8 12 1016.8 1016.6 0.0
08/03:00pm 23.5 20.5 10.6 44 7.1 SSE 17 24 9 13 1017.2 1017.0 0.0
08/02:30pm 23.6 19.8 9.9 42 7.5 S 20 26 11 14 1017.6 1017.4 0.0
08/02:00pm 23.1 19.6 10.2 44 7.1 S 19 26 10 14 1017.9 1017.7 0.0
08/01:30pm 22.8 19.9 9.6 43 7.2 SSE 15 22 8 12 1018.1 1017.9 0.0
08/01:00pm 22.7 20.3 10.2 45 6.8 SE 13 20 7 11 1018.4 1018.2 0.0
08/12:30pm 22.0 19.9 9.9 46 6.6 SSW 11 17 6 9 1018.6 1018.4 0.0
08/12:00pm 21.5 20.1 9.4 46 6.5 ENE 7 13 4 7 1018.6 1018.4 0.0
08/11:30am 20.1 17.6 8.4 47 6.1 SE 11 20 6 11 1018.8 1018.6 0.0
08/11:00am 19.6 17.7 9.2 51 5.5 SE 9 17 5 9 1018.9 1018.7 0.0
08/10:30am 18.4 16.5 8.9 54 5.0 ESE 9 17 5 9 1019.4 1019.2 0.0
08/10:00am 17.0 15.0 8.7 58 4.3 SE 9 17 5 9 1019.6 1019.4 0.0
08/09:30am 17.0 15.1 9.2 60 4.1 SSE 9 17 5 9 1019.8 1019.6 0.0
08/09:00am 17.1 14.8 9.0 59 4.2 SE 11 20 6 11 1020.0 1019.8 0.0
08/08:30am 16.5 14.1 8.5 59 4.1 ESE 11 17 6 9 1020.0 1019.8 0.0
08/08:00am 15.8 13.4 8.8 63 3.6 E 11 15 6 8 1019.6 1019.4 0.0
08/07:30am 14.3 12.3 8.7 69 2.8 SSE 9 13 5 7 1019.4 1019.2 0.0
08/07:00am 14.0 11.3 8.8 71 2.6 ESE 13 17 7 9 1018.9 1018.7 0.0
08/06:30am 13.9 12.0 8.9 72 2.5 E 9 13 5 7 1018.8 1018.6 0.0
08/06:00am 13.7 11.5 9.4 75 2.2 ESE 11 17 6 9 1018.6 1018.4 0.0
08/05:30am 13.8 12.3 9.3 74 2.3 SSE 7 11 4 6 1018.6 1018.4 0.0
08/05:00am 13.9 12.2 9.7 76 2.2 SSE 9 11 5 6 1018.6 1018.4 0.0
08/04:30am 13.7 12.0 9.9 78 2.0 S 9 11 5 6 1018.6 1018.4 0.0
08/04:00am 13.8 11.9 9.0 73 2.4 SSW 9 13 5 7 1018.7 1018.5 0.0
08/03:30am 13.8 11.1 9.0 73 2.4 SSW 13 17 7 9 1018.8 1018.6 0.0
08/03:00am 13.8 11.1 9.0 73 2.4 SSE 13 17 7 9 1018.6 1018.4 0.0
08/02:30am 13.8 11.3 9.6 76 2.2 S 13 17 7 9 1018.8 1018.6 0.0
08/02:00am 13.8 11.3 9.8 77 2.1 S 13 17 7 9 1018.9 1018.7 0.0
08/01:30am 14.0 11.9 9.6 75 2.3 S 11 15 6 8 1019.0 1018.8 0.0
08/01:00am 13.6 11.6 10.0 79 1.9 S 11 15 6 8 1019.0 1018.8 0.0
08/12:30am 13.9 11.5 10.1 78 2.0 SSE 13 15 7 8 1019.2 1019.0 0.0
08/12:00am 14.0 12.0 10.0 77 2.1 S 11 13 6 7 1019.4 1019.2 0.0
 
Date/Time
EDT
Temp
°C
App
Temp
°C
Dew
Point
°C
Rel
Hum
%
Delta-T
°C
Wind Press
QNH
hPa
Press
MSL
hPa
Rain since
9am
mm
Dir  Spd
km/h
Gust
km/h
Spd
kts
Gust
kts
07/11:30pm 14.0 12.0 10.2 78 2.0 S 11 13 6 7 1019.4 1019.2 0.0
07/11:00pm 13.7 11.4 10.3 80 1.8 SSE 13 17 7 9 1019.5 1019.3 0.0
07/10:48pm 13.6 12.0 10.2 80 1.8 SSE 9 15 5 8 1019.6 1019.4 0.0
07/10:30pm 13.5 11.1 10.1 80 1.8 S 13 17 7 9 1019.5 1019.3 0.0
07/10:11pm 13.5 11.1 9.9 79 1.9 S 13 17 7 9 1019.5 1019.3 0.0
07/10:00pm 13.4 10.5 9.8 79 1.8 S 15 20 8 11 1019.6 1019.4 0.0
07/09:57pm 13.4 10.2 9.8 79 1.9 S 17 22 9 12 1019.6 1019.4 0.0
07/09:42pm 13.5 10.3 9.9 79 1.9 S 17 24 9 13 1019.5 1019.3 0.0
07/09:40pm 13.6 10.4 9.8 78 2.0 S 17 24 9 13 1019.5 1019.3 0.0
07/09:30pm 13.7 10.5 10.1 79 1.9 S 17 24 9 13 1019.4 1019.2 0.0
07/09:27pm 13.6 10.4 9.8 78 2.0 S 17 20 9 11 1019.4 1019.2 0.0
07/09:00pm 13.8 9.6 9.8 77 2.1 S 22 33 12 18 1019.2 1019.0 0.0
07/08:30pm 14.1 9.1 9.7 75 2.3 S 26 32 14 17 1018.8 1018.6 0.0
07/08:00pm 14.7 9.8 9.9 73 2.5 S 26 33 14 18 1018.4 1018.2 0.0
07/07:30pm 15.4 10.1 9.7 69 3.0 SSE 28 37 15 20 1018.1 1017.9 0.0
07/07:00pm 15.8 10.0 9.5 66 3.3 S 30 37 16 20 1017.6 1017.4 0.0
07/06:30pm 16.6 11.0 10.0 65 3.5 S 30 39 16 21 1017.0 1016.8 0.0
07/06:00pm 17.4 12.2 10.3 63 3.8 S 28 37 15 20 1016.8 1016.6 0.0
07/05:30pm 17.4 11.8 10.3 63 3.8 SSE 30 37 16 20 1016.5 1016.3 0.0
07/05:00pm 17.7 12.4 9.8 60 4.2 S 28 37 15 20 1016.4 1016.2 0.0
07/04:30pm 18.4 13.2 10.3 59 4.3 S 28 35 15 19 1016.2 1016.0 0.0
07/04:00pm 19.7 14.1 8.7 49 5.8 S 28 35 15 19 1016.0 1015.8 0.0
07/03:30pm 22.1 17.7 8.9 43 7.0 S 22 33 12 18 1015.6 1015.4 0.0
07/03:00pm 21.4 18.0 7.6 41 7.2 S 15 24 8 13 1015.4 1015.2 0.0
07/02:30pm 22.2 18.4 7.6 39 7.6 S 17 26 9 14 1015.3 1015.1 0.0
07/02:00pm 21.2 18.5 7.4 41 7.1 S 11 33 6 18 1015.4 1015.2 0.0
07/01:30pm 20.1 16.5 6.8 42 6.7 SSE 15 19 8 10 1015.3 1015.1 0.0
07/01:00pm 20.1 17.7 7.1 43 6.6 ESE 9 20 5 11 1015.5 1015.3 0.0
07/12:30pm 20.4 17.1 6.4 40 7.1 SSE 13 24 7 13 1015.7 1015.5 0.0
07/12:00pm 19.3 15.1 5.7 41 6.7 S 17 24 9 13 1015.9 1015.7 0.0
07/11:30am 18.2 13.8 4.7 41 6.5 SW 17 28 9 15 1016.4 1016.2 0.0
07/11:00am 17.7 13.4 5.3 44 6.0 WSW 17 24 9 13 1016.6 1016.4 0.0
07/10:30am 16.5 12.0 6.1 50 5.1 SW 19 28 10 15 1016.9 1016.7 0.0
07/10:00am 15.5 11.5 6.5 55 4.4 SW 17 24 9 13 1017.0 1016.8 0.0
07/09:30am 15.7 11.4 7.2 57 4.2 SSW 19 28 10 15 1017.1 1016.9 0.0
07/09:00am 14.7 9.4 7.0 60 3.8 SW 24 35 13 19 1017.3 1017.1 0.0
07/08:30am 14.4 10.1 7.7 64 3.3 SW 20 28 11 15 1016.9 1016.7 0.0
07/08:00am 12.7 8.3 7.2 69 2.7 SW 20 28 11 15 1016.8 1016.6 0.0
07/07:30am 11.7 7.4 6.8 72 2.3 WSW 19 24 10 13 1016.6 1016.4 0.0
07/07:00am 11.2 8.0 6.7 74 2.1 W 13 17 7 9 1016.3 1016.1 0.0
07/06:30am 9.8 6.9 6.3 79 1.6 W 11 13 6 7 1016.2 1016.0 0.0
07/06:00am 9.5 6.9 5.9 78 1.7 WNW 9 13 5 7 1015.7 1015.5 0.0
07/05:30am 8.8 6.1 5.4 79 1.5 WNW 9 11 5 6 1015.7 1015.5 0.0
07/05:00am 9.2 6.1 5.6 78 1.6 WNW 11 15 6 8 1015.4 1015.2 0.0
07/04:30am 9.5 6.1 5.7 77 1.7 WNW 13 15 7 8 1015.3 1015.1 0.0
07/04:00am 9.8 5.6 5.8 76 1.8 WNW 17 20 9 11 1015.3 1015.1 0.0
07/03:30am 9.9 6.2 6.1 77 1.8 W 15 19 8 10 1015.3 1015.1 0.0
07/03:00am 9.9 6.2 6.1 77 1.8 W 15 17 8 9 1015.3 1015.1 0.0
07/02:30am 10.2 6.5 6.5 78 1.7 W 15 17 8 9 1015.3 1015.1 0.0
07/02:00am 10.5 6.1 6.6 77 1.8 WSW 19 22 10 12 1015.8 1015.6 0.0
07/01:30am 10.4 7.1 6.2 75 2.0 WSW 13 17 7 9 1015.7 1015.5 0.0
07/01:00am 11.5 7.4 6.2 70 2.5 WSW 17 22 9 12 1015.7 1015.5 0.0
07/12:30am 12.1 8.8 6.2 67 2.8 WSW 13 17 7 9 1015.5 1015.3 0.0
07/12:00am 12.1 8.4 6.2 67 2.8 WSW 15 20 8 11 1015.6 1015.4 0.0
 
Date/Time
EDT
Temp
°C
App
Temp
°C
Dew
Point
°C
Rel
Hum
%
Delta-T
°C
Wind Press
QNH
hPa
Press
MSL
hPa
Rain since
9am
mm
Dir  Spd
km/h
Gust
km/h
Spd
kts
Gust
kts
06/11:30pm 12.4 7.6 5.8 64 3.1 SW 20 26 11 14 1015.8 1015.6 0.0
06/11:00pm 12.9 7.0 5.8 62 3.3 SW 26 35 14 19 1015.9 1015.7 0.0
06/10:30pm 13.3 8.1 5.7 60 3.6 SW 22 28 12 15 1015.7 1015.5 0.0
06/10:00pm 13.2 7.6 5.6 60 3.6 SW 24 33 13 18 1015.8 1015.6 0.0
06/09:30pm 13.8 7.3 6.4 61 3.6 SW 30 39 16 21 1014.9 1014.8 0.0
06/09:00pm 14.6 9.1 5.9 56 4.2 SW 24 33 13 18 1014.5 1014.4 0.0
06/08:30pm 15.4 9.5 5.6 52 4.7 SW 26 37 14 20 1014.1 1014.0 0.0
06/08:00pm 16.4 10.9 5.7 49 5.2 SW 24 33 13 18 1013.8 1013.7 0.0
06/07:30pm 17.2 10.8 5.2 45 5.8 SW 28 39 15 21 1013.3 1013.2 0.0
06/07:00pm 18.5 12.2 5.7 43 6.3 SSW 28 43 15 23 1012.9 1012.8 0.0
06/06:30pm 18.7 11.7 6.2 44 6.2 SW 32 43 17 23 1012.2 1012.0 0.0
06/06:20pm 19.7 12.5 5.0 38 7.2 SW 32 50 17 27 1012.0 1011.8 0.0
06/06:00pm 19.3 11.6 5.4 40 6.8 SW 35 46 19 25 1011.7 1011.5 0.0
06/05:30pm 19.9 12.9 5.9 40 7.0 SW 32 39 17 21 1011.7 1011.5 0.0
06/05:00pm 20.1 12.9 6.1 40 7.0 SW 33 46 18 25 1011.7 1011.5 0.0
06/04:30pm 20.9 13.7 5.7 37 7.6 WSW 33 50 18 27 1011.7 1011.5 0.0
06/04:00pm 21.5 14.0 6.2 37 7.7 WSW 35 44 19 24 1011.7 1011.5 0.0
06/03:30pm 19.9 12.2 5.2 38 7.2 WSW 35 48 19 26 1011.7 1011.5 0.0
06/03:00pm 20.6 12.4 5.0 36 7.7 WSW 37 50 20 27 1011.7 1011.5 0.0
06/02:39pm 20.8 13.4 5.2 36 7.7 WSW 33 52 18 28 1011.7 1011.5 0.0
06/02:30pm 20.4 13.2 5.2 37 7.5 WSW 32 43 17 23 1011.6 1011.4 0.0
06/02:00pm 19.5 11.9 5.9 41 6.8 WSW 35 46 19 25 1011.6 1011.4 0.0
06/01:41pm 20.2 13.4 5.1 37 7.4 WSW 30 50 16 27 1011.7 1011.5 0.0
06/01:30pm 19.3 12.2 5.7 41 6.7 SW 32 43 17 23 1011.8 1011.6 0.0
06/01:18pm 18.9 11.9 6.1 43 6.4 WSW 32 50 17 27 1011.7 1011.5 0.0
06/01:00pm 20.8 14.3 6.4 39 7.3 WSW 30 44 16 24 1011.6 1011.4 0.0
06/12:30pm 18.4 11.3 5.6 43 6.3 WSW 32 46 17 25 1011.7 1011.5 0.0
06/12:14pm 18.7 11.7 5.9 43 6.3 W 32 52 17 28 1011.7 1011.5 0.0
06/12:00pm 17.7 10.1 5.6 45 5.9 WSW 35 48 19 26 1011.7 1011.5 0.0
06/11:41am 17.6 10.6 6.2 47 5.6 WSW 32 50 17 27 1011.8 1011.6 0.0
06/11:30am 16.8 9.2 6.0 49 5.3 WSW 35 46 19 25 1011.8 1011.6 0.0
06/11:00am 16.5 10.0 6.6 52 4.9 WSW 30 43 16 23 1011.6 1011.4 0.0
06/10:30am 15.8 9.0 7.1 56 4.3 WSW 32 44 17 24 1011.9 1011.7 0.0
06/10:00am 15.3 9.7 7.3 59 4.0 WSW 26 37 14 20 1011.9 1011.7 0.0
06/09:30am 16.2 10.7 7.7 57 4.3 SW 26 35 14 19 1011.4 1011.2 0.0
06/09:00am 14.9 10.5 7.5 61 3.7 WSW 20 26 11 14 1011.4 1011.2 0.0
06/08:30am 14.2 8.3 7.3 63 3.4 WSW 28 35 15 19 1011.3 1011.1 0.0
06/08:00am 13.5 9.2 6.8 64 3.2 WSW 19 28 10 15 1011.2 1011.0 0.0
06/07:30am 13.2 8.7 6.8 65 3.1 WSW 20 28 11 15 1011.0 1010.8 0.0
06/07:00am 13.0 8.7 6.8 66 3.0 WSW 19 26 10 14 1010.6 1010.4 0.0
06/06:30am 12.7 8.1 6.5 66 3.0 WSW 20 28 11 15 1010.5 1010.3 0.0

Other formats

Comma delimited format used in spreadsheet applications
http://www.bom.gov.au/fwo/IDV60801/IDV60801.95866.axf

JavaScript Object Notation format (JSON) in row-major order
http://www.bom.gov.au/fwo/IDV60801/IDV60801.95866.json

Data quality

Most of these data are generated automatically and are frequently updated. Quality checks on data are not normally performed. It is possible for incorrect values to appear. Refer to information at About Latest Weather Observations and please check the disclaimer before using these data.